Time;durP1;ratioP1;P1;durP2;ratioP2;P2;SDS_P1;SDS_P2;PMS_P1;PMS_P2;Temp;Humidity;BMP_temperature;BMP_pressure;BME280_temperature;BME280_humidity;BME280_pressure;Samples;Min_cycle;Max_cycle;Signal;HPM_P1;HPM_P2
2022/07/05 00:00:45;;;;;;;4.85;2.10;;;14.10;99.90;;;;;;5075127;28;20420;-70
2022/07/05 00:03:11;;;;;;;2.63;1.90;;;14.10;99.90;;;;;;5075295;28;20033;-70
2022/07/05 00:05:37;;;;;;;3.13;1.98;;;14.00;99.90;;;;;;5058398;28;20040;-71
2022/07/05 00:08:03;;;;;;;3.47;1.70;;;13.90;99.90;;;;;;5075029;28;20040;-71
2022/07/05 00:10:30;;;;;;;4.63;2.00;;;13.90;99.90;;;;;;5075001;28;20126;-71
2022/07/05 00:12:56;;;;;;;2.75;1.80;;;13.90;99.90;;;;;;5058442;28;20032;-71
2022/07/05 00:15:22;;;;;;;4.80;2.25;;;13.80;99.90;;;;;;5075095;28;20453;-71
2022/07/05 00:17:48;;;;;;;4.25;1.95;;;13.80;99.90;;;;;;5074884;28;20528;-71
2022/07/05 00:20:13;;;;;;;3.20;1.88;;;13.70;99.90;;;;;;5075004;28;20390;-71
2022/07/05 00:22:39;;;;;;;2.67;1.92;;;13.70;99.90;;;;;;5074934;28;20194;-71
2022/07/05 00:25:05;;;;;;;5.07;1.95;;;13.70;99.90;;;;;;5074972;28;20033;-71
2022/07/05 00:27:31;;;;;;;4.30;2.22;;;13.60;99.90;;;;;;5074604;28;20478;-71
2022/07/05 00:29:56;;;;;;;4.15;2.45;;;13.70;99.90;;;;;;5074505;28;20123;-71
2022/07/05 00:32:22;;;;;;;2.78;2.08;;;13.60;99.90;;;;;;5074467;28;20094;-71
2022/07/05 00:34:48;;;;;;;2.72;2.20;;;13.60;99.90;;;;;;5074496;28;20033;-71
2022/07/05 00:37:13;;;;;;;4.00;2.30;;;13.50;99.90;;;;;;5057776;28;20072;-71
2022/07/05 00:39:39;;;;;;;3.10;2.40;;;13.50;99.90;;;;;;5074358;28;20047;-71
2022/07/05 00:42:04;;;;;;;3.58;2.33;;;13.50;99.90;;;;;;5074288;28;20048;-71
2022/07/05 00:44:35;;;;;;;9.38;2.63;;;13.50;99.90;;;;;;5074283;28;20062;-71
2022/07/05 00:47:03;;;;;;;5.07;3.13;;;13.50;99.90;;;;;;5074319;28;20041;-71
2022/07/05 00:49:29;;;;;;;3.95;2.20;;;13.50;99.90;;;;;;5073976;28;20483;-71
2022/07/05 00:51:55;;;;;;;5.60;2.88;;;13.40;99.90;;;;;;5057521;28;20468;-71
2022/07/05 00:54:20;;;;;;;5.97;2.63;;;13.40;99.90;;;;;;5074144;28;20086;-71
2022/07/05 00:56:47;;;;;;;4.38;2.95;;;13.40;99.90;;;;;;5074402;28;20044;-71
2022/07/05 00:59:12;;;;;;;5.72;3.00;;;13.40;99.90;;;;;;5074039;28;20047;-71
2022/07/05 01:01:38;;;;;;;4.82;3.00;;;13.40;99.90;;;;;;5057287;28;20032;-71
2022/07/05 01:04:04;;;;;;;7.32;3.40;;;13.30;99.90;;;;;;5073873;28;20044;-71
2022/07/05 01:06:29;;;;;;;5.28;3.22;;;13.40;99.90;;;;;;5057253;28;20400;-71
2022/07/05 01:08:55;;;;;;;4.97;3.55;;;13.40;99.90;;;;;;5073760;28;20119;-71
2022/07/05 01:11:21;;;;;;;6.85;4.03;;;13.30;99.90;;;;;;5057301;28;20059;-71
2022/07/05 01:13:46;;;;;;;8.00;5.35;;;13.40;99.90;;;;;;5074055;28;20032;-71
2022/07/05 01:16:13;;;;;;;10.32;5.57;;;13.40;99.90;;;;;;5073720;28;20548;-71
2022/07/05 01:18:38;;;;;;;7.00;4.80;;;13.40;99.90;;;;;;5073630;28;20032;-71
2022/07/05 01:21:04;;;;;;;5.20;3.50;;;13.40;99.90;;;;;;5073868;28;20044;-71
2022/07/05 01:23:32;;;;;;;5.35;4.32;;;13.40;99.90;;;;;;5073570;28;20515;-71
2022/07/05 01:26:00;;;;;;;7.00;4.43;;;13.40;99.90;;;;;;5073806;28;20431;-71
2022/07/05 01:28:26;;;;;;;7.47;4.90;;;13.30;99.90;;;;;;5073454;28;20045;-71
2022/07/05 01:30:52;;;;;;;9.68;5.05;;;13.30;99.90;;;;;;5073434;28;20123;-71
2022/07/05 01:33:17;;;;;;;4.95;3.92;;;13.30;99.90;;;;;;5073354;28;20119;-71
2022/07/05 01:35:43;;;;;;;9.88;4.80;;;13.30;99.90;;;;;;5073399;28;20032;-71
2022/07/05 01:38:11;;;;;;;7.32;5.47;;;13.30;99.90;;;;;;5056903;28;20044;-71
2022/07/05 01:40:36;;;;;;;11.15;5.72;;;13.30;99.90;;;;;;5073264;28;20048;-71
2022/07/05 01:43:04;;;;;;;11.52;6.18;;;13.30;99.90;;;;;;5073182;28;20432;-71
2022/07/05 01:45:44;;;;;;;8.23;5.38;;;13.30;99.90;;;;;;5073347;28;20040;-71
2022/07/05 01:48:12;;;;;;;8.63;5.80;;;13.30;99.90;;;;;;5056482;28;20071;-71
2022/07/05 01:50:51;;;;;;;6.97;4.82;;;13.30;99.90;;;;;;5056278;28;20056;-71
2022/07/05 01:53:19;;;;;;;8.20;5.60;;;13.30;99.90;;;;;;5072962;28;20488;-71
2022/07/05 01:55:46;;;;;;;7.63;5.05;;;13.30;99.90;;;;;;5073190;28;20090;-71
2022/07/05 01:58:12;;;;;;;6.82;4.93;;;13.30;99.90;;;;;;5072988;28;20123;-71
2022/07/05 02:00:50;;;;;;;7.32;4.80;;;13.30;99.90;;;;;;5072878;28;20044;-71
2022/07/05 02:03:16;;;;;;;6.55;4.82;;;13.30;99.90;;;;;;5056024;28;20067;-71
2022/07/05 02:05:43;;;;;;;11.65;5.10;;;13.30;99.90;;;;;;5072791;28;20037;-71
2022/07/05 02:08:10;;;;;;;6.95;4.88;;;13.30;99.90;;;;;;5056111;28;20079;-71
2022/07/05 02:10:37;;;;;;;7.25;4.93;;;13.20;99.90;;;;;;5055805;28;20036;-71
2022/07/05 02:13:04;;;;;;;6.30;4.07;;;13.20;99.90;;;;;;5056088;28;20055;-71
2022/07/05 02:15:31;;;;;;;7.88;4.38;;;13.20;99.90;;;;;;5071849;28;20374;-71
2022/07/05 02:17:57;;;;;;;5.28;3.55;;;13.20;99.90;;;;;;5073621;28;20445;-71
2022/07/05 02:20:22;;;;;;;5.00;4.07;;;13.10;99.90;;;;;;5072414;28;20527;-71
2022/07/05 02:22:48;;;;;;;5.35;3.72;;;13.10;99.90;;;;;;5055775;28;20098;-71
2022/07/05 02:25:13;;;;;;;7.05;3.97;;;13.10;99.90;;;;;;5072407;28;20071;-71
2022/07/05 02:27:39;;;;;;;5.10;3.50;;;13.00;99.90;;;;;;5072346;28;20138;-71
2022/07/05 02:30:05;;;;;;;6.72;4.60;;;13.00;99.90;;;;;;5072251;28;20036;-71
2022/07/05 02:32:32;;;;;;;6.65;4.28;;;13.00;99.90;;;;;;5072167;28;20412;-71
2022/07/05 02:34:58;;;;;;;7.57;5.00;;;13.00;99.90;;;;;;5072281;28;20041;-71
2022/07/05 02:37:23;;;;;;;6.93;4.30;;;13.10;99.90;;;;;;5072456;28;20109;-71
2022/07/05 02:39:49;;;;;;;8.88;5.40;;;13.10;99.90;;;;;;5072147;28;20173;-71
2022/07/05 02:42:15;;;;;;;6.93;4.60;;;13.10;99.90;;;;;;5072052;28;20119;-71
2022/07/05 02:44:40;;;;;;;6.90;5.05;;;13.10;99.90;;;;;;5072373;28;20443;-71
2022/07/05 02:47:06;;;;;;;8.98;4.65;;;13.10;99.90;;;;;;5072028;28;20120;-71
2022/07/05 02:49:32;;;;;;;6.50;3.75;;;13.10;99.90;;;;;;5072245;28;20170;-71
2022/07/05 02:51:57;;;;;;;4.82;4.20;;;13.10;99.90;;;;;;5071972;28;20032;-71
2022/07/05 02:54:23;;;;;;;9.00;4.43;;;13.10;99.90;;;;;;5055555;28;20047;-71
2022/07/05 02:56:48;;;;;;;7.75;5.20;;;13.00;99.90;;;;;;5071955;28;20043;-71
2022/07/05 02:59:14;;;;;;;7.70;5.20;;;12.90;99.90;;;;;;5055193;28;20127;-71
2022/07/05 03:01:40;;;;;;;9.00;5.00;;;13.00;99.90;;;;;;5072071;28;20048;-71
2022/07/05 03:04:06;;;;;;;5.35;4.40;;;13.00;99.90;;;;;;5071874;28;20033;-71
2022/07/05 03:06:32;;;;;;;5.38;4.28;;;12.90;99.90;;;;;;5072091;28;20040;-71
2022/07/05 03:08:57;;;;;;;7.88;3.97;;;12.90;99.90;;;;;;5071684;28;20481;-71
2022/07/05 03:11:23;;;;;;;6.18;3.97;;;12.90;99.90;;;;;;5071651;28;20123;-71
2022/07/05 03:13:48;;;;;;;5.25;3.53;;;12.90;99.90;;;;;;5055140;28;20036;-71
2022/07/05 03:16:14;;;;;;;4.22;3.53;;;12.80;99.90;;;;;;5071748;28;20041;-71
2022/07/05 03:18:40;;;;;;;5.15;3.60;;;12.80;99.90;;;;;;5071784;28;20045;-71
2022/07/05 03:21:05;;;;;;;5.07;3.85;;;12.80;99.90;;;;;;5055138;28;20438;-71
2022/07/05 03:23:31;;;;;;;5.78;3.50;;;12.80;99.90;;;;;;5055190;28;20036;-71
2022/07/05 03:25:56;;;;;;;6.35;4.50;;;12.70;99.90;;;;;;5073518;28;20051;-71
2022/07/05 03:28:22;;;;;;;6.10;4.40;;;12.70;99.90;;;;;;5076067;28;20342;-71
2022/07/05 03:30:48;;;;;;;5.97;4.40;;;12.70;99.90;;;;;;5075657;28;20041;-71
2022/07/05 03:33:13;;;;;;;6.15;4.53;;;12.70;99.90;;;;;;5075929;28;20270;-71
2022/07/05 03:35:39;;;;;;;7.57;5.15;;;12.70;99.90;;;;;;5075732;28;20493;-71
2022/07/05 03:38:04;;;;;;;7.43;4.60;;;12.70;99.90;;;;;;5075568;28;20058;-71
2022/07/05 03:40:30;;;;;;;5.22;3.92;;;12.70;99.90;;;;;;5075586;28;20123;-71
2022/07/05 03:42:55;;;;;;;6.68;4.30;;;12.70;99.90;;;;;;5059034;28;20040;-71
2022/07/05 03:45:21;;;;;;;4.70;3.83;;;12.60;99.90;;;;;;5058826;28;20044;-72
2022/07/05 03:47:47;;;;;;;5.40;4.20;;;12.50;99.90;;;;;;5075713;28;20067;-73
2022/07/05 03:50:12;;;;;;;6.65;4.22;;;12.50;99.90;;;;;;5058860;28;20044;-73
2022/07/05 03:52:38;;;;;;;6.68;4.30;;;12.50;99.90;;;;;;5058615;28;20477;-72
2022/07/05 03:55:04;;;;;;;5.68;4.40;;;12.40;99.90;;;;;;5075546;28;20109;-72
2022/07/05 03:57:29;;;;;;;7.82;4.55;;;12.40;99.90;;;;;;5058907;28;20032;-73
2022/07/05 03:59:55;;;;;;;7.72;5.03;;;12.40;99.90;;;;;;5058909;28;20462;-73
2022/07/05 04:02:21;;;;;;;7.07;5.05;;;12.40;99.90;;;;;;5058444;28;20123;-73
2022/07/05 04:04:46;;;;;;;10.50;5.35;;;12.50;99.90;;;;;;5075092;28;20047;-73
2022/07/05 04:07:12;;;;;;;7.88;5.53;;;12.50;99.90;;;;;;5075046;28;20075;-73
2022/07/05 04:09:37;;;;;;;8.13;5.63;;;12.60;99.90;;;;;;5074953;28;20036;-73
2022/07/05 04:12:04;;;;;;;9.55;6.40;;;12.70;99.90;;;;;;5075129;28;20041;-73
2022/07/05 04:14:30;;;;;;;8.93;5.70;;;12.70;99.90;;;;;;5074916;28;20489;-73
2022/07/05 04:16:56;;;;;;;7.07;5.55;;;12.70;99.90;;;;;;5074859;28;20037;-73
2022/07/05 04:19:21;;;;;;;8.48;5.88;;;12.80;99.90;;;;;;5075385;28;20032;-73
2022/07/05 04:21:47;;;;;;;8.57;5.90;;;12.80;99.90;;;;;;5074707;28;20565;-73
2022/07/05 04:24:13;;;;;;;7.50;5.55;;;12.80;99.90;;;;;;5074996;28;20405;-73
2022/07/05 04:26:38;;;;;;;8.40;6.15;;;12.90;99.90;;;;;;5074927;28;20032;-73
2022/07/05 04:29:04;;;;;;;9.65;6.60;;;12.90;99.90;;;;;;5074648;28;20508;-73
2022/07/05 04:31:30;;;;;;;8.95;6.18;;;13.00;99.90;;;;;;5074460;28;20048;-72
2022/07/05 04:33:55;;;;;;;9.18;6.47;;;13.00;99.90;;;;;;5074618;28;20481;-72
2022/07/05 04:36:21;;;;;;;10.07;6.70;;;13.10;99.90;;;;;;5074537;28;20033;-72
2022/07/05 04:38:46;;;;;;;11.48;6.93;;;13.20;99.90;;;;;;5073735;28;20047;-72
2022/07/05 04:41:12;;;;;;;8.75;6.47;;;13.20;99.90;;;;;;5074676;28;20127;-72
2022/07/05 04:43:37;;;;;;;7.07;5.18;;;13.20;99.90;;;;;;5074406;28;20497;-73
2022/07/05 04:46:03;;;;;;;11.98;6.82;;;13.30;99.90;;;;;;5074607;28;20113;-73
2022/07/05 04:48:29;;;;;;;8.73;5.63;;;13.30;99.90;;;;;;5074606;28;20055;-73
2022/07/05 04:50:54;;;;;;;7.07;5.95;;;13.40;99.90;;;;;;5074309;28;20412;-72
2022/07/05 04:53:20;;;;;;;6.57;5.97;;;13.40;99.90;;;;;;5074430;28;20499;-72
2022/07/05 04:55:45;;;;;;;6.93;6.13;;;13.50;99.90;;;;;;5074176;28;20086;-73
2022/07/05 04:58:11;;;;;;;8.48;6.18;;;13.50;99.90;;;;;;5074316;28;20131;-73
2022/07/05 05:00:37;;;;;;;7.22;6.07;;;13.60;99.90;;;;;;5057389;28;20516;-73
2022/07/05 05:03:02;;;;;;;7.32;6.57;;;13.70;99.90;;;;;;5073952;28;20062;-73
2022/07/05 05:05:28;;;;;;;8.70;6.00;;;13.80;99.90;;;;;;5073973;28;20036;-73
2022/07/05 05:07:53;;;;;;;7.78;5.65;;;13.90;99.90;;;;;;5057210;28;20036;-73
2022/07/05 05:10:19;;;;;;;8.82;5.65;;;14.00;99.90;;;;;;5073736;28;20044;-73
2022/07/05 05:12:44;;;;;;;8.70;6.93;;;14.00;99.90;;;;;;5057347;28;20038;-73
2022/07/05 05:15:10;;;;;;;10.30;7.05;;;14.10;99.90;;;;;;5073816;28;20497;-73
2022/07/05 05:17:37;;;;;;;8.32;6.55;;;14.10;99.90;;;;;;5057024;28;20120;-73
2022/07/05 05:20:05;;;;;;;9.60;7.28;;;14.10;99.90;;;;;;5073763;28;20090;-73
2022/07/05 05:22:30;;;;;;;7.88;6.68;;;14.20;99.90;;;;;;5073846;28;20076;-73
2022/07/05 05:24:56;;;;;;;9.15;7.65;;;14.20;99.90;;;;;;5073866;28;20079;-73
2022/07/05 05:27:22;;;;;;;7.50;6.78;;;14.20;99.90;;;;;;5056889;28;20040;-72
2022/07/05 05:29:47;;;;;;;7.95;6.25;;;14.20;99.90;;;;;;5073405;28;20090;-72
2022/07/05 05:32:13;;;;;;;8.93;6.35;;;14.30;99.90;;;;;;5073398;28;20115;-73
2022/07/05 05:34:39;;;;;;;7.15;6.45;;;14.40;99.90;;;;;;5056725;28;20039;-73
2022/07/05 05:37:04;;;;;;;8.82;6.43;;;14.50;99.90;;;;;;5073648;28;20047;-73
2022/07/05 05:39:30;;;;;;;7.65;6.78;;;14.60;99.90;;;;;;5056917;28;20078;-73
2022/07/05 05:41:55;;;;;;;9.25;6.40;;;14.60;99.90;;;;;;5056556;28;20484;-73
2022/07/05 05:44:21;;;;;;;12.75;6.85;;;14.70;99.90;;;;;;5056884;28;20037;-73
2022/07/05 05:46:46;;;;;;;8.32;6.32;;;14.80;99.90;;;;;;5056572;28;20040;-72
2022/07/05 05:49:12;;;;;;;8.23;5.70;;;14.80;99.90;;;;;;5072274;28;20052;-72
2022/07/05 05:51:38;;;;;;;8.65;5.15;;;14.90;99.90;;;;;;5072776;28;20530;-72
2022/07/05 05:54:03;;;;;;;8.10;5.45;;;15.00;99.90;;;;;;5073029;28;20549;-72
2022/07/05 05:56:29;;;;;;;8.73;5.72;;;15.10;99.90;;;;;;5073028;28;20123;-72
2022/07/05 05:58:54;;;;;;;6.65;5.07;;;15.10;99.90;;;;;;5072960;28;20048;-72
2022/07/05 06:01:20;;;;;;;8.60;4.55;;;15.10;99.90;;;;;;5072833;28;20044;-72
2022/07/05 06:03:46;;;;;;;7.55;4.50;;;15.20;99.90;;;;;;5056480;28;20094;-72
2022/07/05 06:06:11;;;;;;;6.57;4.25;;;15.30;99.90;;;;;;5056237;28;20492;-72
2022/07/05 06:08:37;;;;;;;6.25;4.32;;;15.40;99.90;;;;;;5072654;28;20147;-72
2022/07/05 06:11:04;;;;;;;8.95;3.85;;;15.50;99.90;;;;;;5072672;28;20086;-72
2022/07/05 06:13:30;;;;;;;6.32;4.22;;;15.70;99.90;;;;;;5072864;28;20032;-72
2022/07/05 06:15:55;;;;;;;6.25;3.80;;;15.80;99.90;;;;;;5055902;28;20503;-72
2022/07/05 06:18:22;;;;;;;6.75;2.97;;;15.90;99.90;;;;;;5072813;28;20036;-72
2022/07/05 06:20:47;;;;;;;4.60;2.80;;;16.00;99.90;;;;;;5072506;28;20049;-72
2022/07/05 06:23:13;;;;;;;5.43;2.85;;;16.10;99.90;;;;;;5072679;28;20102;-72
2022/07/05 06:25:39;;;;;;;4.80;2.58;;;16.20;99.90;;;;;;5072859;28;20123;-72
2022/07/05 06:28:07;;;;;;;6.10;2.40;;;16.30;99.90;;;;;;5072522;28;20084;-73
2022/07/05 06:30:35;;;;;;;8.05;1.90;;;16.40;99.90;;;;;;5055622;28;20090;-73
2022/07/05 06:33:01;;;;;;;5.93;1.70;;;16.50;99.90;;;;;;5072266;28;20040;-73
2022/07/05 06:35:27;;;;;;;3.88;1.40;;;16.60;99.90;;;;;;5072325;28;20040;-72
2022/07/05 06:37:58;;;;;;;4.55;1.13;;;16.70;99.90;;;;;;5055760;28;20496;-72
2022/07/05 06:40:29;;;;;;;2.92;1.27;;;16.80;99.90;;;;;;5072518;28;20610;-73
2022/07/05 06:42:57;;;;;;;4.55;1.08;;;16.90;99.90;;;;;;5072404;28;20083;-72
2022/07/05 06:45:23;;;;;;;5.07;1.00;;;17.00;99.90;;;;;;5055579;28;20049;-72
2022/07/05 06:47:56;;;;;;;6.85;1.02;;;17.10;99.90;;;;;;5055460;28;20502;-72
2022/07/05 06:50:22;;;;;;;4.43;1.00;;;17.20;99.90;;;;;;5072059;28;20040;-72
2022/07/05 06:52:48;;;;;;;4.05;0.70;;;17.30;99.90;;;;;;5055545;28;20063;-73
2022/07/05 06:55:13;;;;;;;3.60;0.70;;;17.40;99.90;;;;;;5072265;28;20033;-73
2022/07/05 06:57:39;;;;;;;5.80;1.15;;;17.40;99.90;;;;;;5071976;28;20127;-73
2022/07/05 07:00:05;;;;;;;3.65;0.90;;;17.50;99.90;;;;;;5055225;28;20045;-73
2022/07/05 07:02:31;;;;;;;2.55;0.65;;;17.50;99.90;;;;;;5071608;28;20040;-73
2022/07/05 07:04:57;;;;;;;5.85;0.98;;;17.60;99.90;;;;;;5055198;28;20040;-72
2022/07/05 07:10:06;;;;;;;4.57;0.90;;;17.50;99.90;;;;;;5071614;28;20048;-73
2022/07/05 07:12:33;;;;;;;4.63;0.60;;;17.50;99.90;;;;;;5072059;28;20069;-73
2022/07/05 07:14:59;;;;;;;4.80;0.88;;;17.50;99.90;;;;;;5071775;28;20068;-72
2022/07/05 07:17:25;;;;;;;3.10;0.60;;;17.50;99.90;;;;;;5071777;28;20045;-72
2022/07/05 07:19:51;;;;;;;2.85;0.70;;;17.60;99.90;;;;;;5072050;28;20039;-72
2022/07/05 07:22:16;;;;;;;4.75;0.60;;;17.60;99.90;;;;;;5071922;28;20040;-72
2022/07/05 07:24:42;;;;;;;3.55;1.02;;;17.70;99.90;;;;;;5055014;28;20441;-72
2022/07/05 07:27:08;;;;;;;4.57;1.20;;;17.80;99.90;;;;;;5071689;28;20048;-72
2022/07/05 07:29:38;;;;;;;7.70;0.80;;;18.00;99.90;;;;;;5071570;28;20093;-72
2022/07/05 07:32:05;;;;;;;5.95;0.90;;;18.10;99.90;;;;;;5071939;28;20036;-72
2022/07/05 07:34:31;;;;;;;9.15;1.85;;;18.30;99.90;;;;;;5071789;28;20036;-72
2022/07/05 07:36:57;;;;;;;2.63;0.68;;;18.40;99.90;;;;;;5071880;28;20464;-72
2022/07/05 07:39:24;;;;;;;2.70;0.70;;;18.60;99.90;;;;;;5054973;28;20499;-72
2022/07/05 07:41:50;;;;;;;4.38;0.68;;;18.60;99.90;;;;;;5054742;28;20033;-72
2022/07/05 07:44:16;;;;;;;4.68;0.90;;;18.50;99.90;;;;;;5071768;28;20043;-72
2022/07/05 07:46:42;;;;;;;3.90;0.60;;;18.50;99.90;;;;;;5071518;28;20048;-72
2022/07/05 07:49:09;;;;;;;4.38;0.70;;;18.40;99.90;;;;;;5071394;28;20041;-72
2022/07/05 07:51:34;;;;;;;2.53;0.60;;;18.40;99.90;;;;;;5071338;28;20040;-72
2022/07/05 07:54:00;;;;;;;4.15;0.73;;;18.40;99.90;;;;;;5071434;28;20040;-72
2022/07/05 07:56:26;;;;;;;3.63;0.68;;;18.40;99.90;;;;;;5071365;28;20191;-73
2022/07/05 07:58:52;;;;;;;4.30;0.50;;;18.50;99.90;;;;;;5071640;28;20511;-73
2022/07/05 08:01:17;;;;;;;4.80;0.80;;;18.70;99.90;;;;;;5054563;28;20562;-72
2022/07/05 08:03:44;;;;;;;3.28;0.70;;;19.00;99.90;;;;;;5071376;28;20048;-72
2022/07/05 08:06:11;;;;;;;6.95;0.80;;;19.20;99.90;;;;;;5071574;28;20044;-72
2022/07/05 08:08:38;;;;;;;12.45;1.08;;;19.20;99.90;;;;;;5054472;28;20052;-72
2022/07/05 08:11:04;;;;;;;4.03;0.50;;;19.10;99.90;;;;;;5071245;28;20550;-72
2022/07/05 08:13:30;;;;;;;6.88;0.68;;;19.00;99.90;;;;;;5056265;28;20120;-72
2022/07/05 08:15:56;;;;;;;2.60;0.65;;;18.90;99.90;;;;;;5058321;28;20115;-72
2022/07/05 08:23:50;;;;;;;3.35;0.50;;;19.30;99.90;;;;;;5074835;28;20040;-73
2022/07/05 08:26:15;;;;;;;1.95;0.73;;;19.50;99.90;;;;;;5074984;28;20045;-73
2022/07/05 08:28:41;;;;;;;5.93;0.80;;;19.70;99.90;;;;;;5074657;28;20051;-72
2022/07/05 08:31:06;;;;;;;6.13;0.85;;;20.00;99.90;;;;;;5074687;28;20040;-72
2022/07/05 08:33:32;;;;;;;3.40;0.70;;;20.10;99.90;;;;;;5057860;28;20528;-72
2022/07/05 08:35:57;;;;;;;2.85;0.80;;;20.10;99.90;;;;;;5074559;28;20067;-72
2022/07/05 08:38:23;;;;;;;5.68;0.90;;;20.00;99.90;;;;;;5074495;28;20033;-72
2022/07/05 08:40:51;;;;;;;2.72;0.60;;;20.00;99.90;;;;;;5074482;28;20040;-73
2022/07/05 08:43:18;;;;;;;2.90;0.70;;;20.00;99.90;;;;;;5074305;28;20036;-73
2022/07/05 08:45:44;;;;;;;3.60;0.77;;;19.80;99.90;;;;;;5074328;28;20471;-73
2022/07/05 08:48:10;;;;;;;5.43;0.70;;;19.70;99.90;;;;;;5074552;28;20493;-73
2022/07/05 08:50:43;;;;;;;4.85;0.75;;;19.80;99.90;;;;;;5074401;28;20045;-73
2022/07/05 08:53:10;;;;;;;3.35;0.63;;;19.90;99.90;;;;;;5057772;28;20036;-73
2022/07/05 08:55:35;;;;;;;4.05;0.60;;;19.70;99.90;;;;;;5074211;28;20043;-73
2022/07/05 08:58:02;;;;;;;2.85;0.60;;;19.60;99.90;;;;;;5074183;28;20040;-72
2022/07/05 09:00:28;;;;;;;1.75;0.60;;;19.50;99.90;;;;;;5058252;28;20185;-72
2022/07/05 09:02:55;;;;;;;3.15;0.90;;;19.30;99.90;;;;;;5074292;28;20093;-72
2022/07/05 09:05:22;;;;;;;5.07;1.08;;;19.30;99.90;;;;;;5057386;28;20520;-72
2022/07/05 09:08:01;;;;;;;5.30;0.65;;;19.30;99.90;;;;;;5073966;28;20049;-72
2022/07/05 09:10:29;;;;;;;4.03;1.02;;;19.30;99.70;;;;;;5057116;28;20045;-72
2022/07/05 09:12:55;;;;;;;2.30;0.57;;;19.30;99.90;;;;;;5073855;28;20041;-72
2022/07/05 09:15:21;;;;;;;5.18;0.75;;;19.20;99.90;;;;;;5074156;28;20060;-72
2022/07/05 09:17:47;;;;;;;5.65;0.98;;;19.20;99.90;;;;;;5074039;28;20481;-72
2022/07/05 09:20:14;;;;;;;3.92;0.90;;;19.30;99.90;;;;;;5073966;28;20040;-72
2022/07/05 09:22:49;;;;;;;2.78;0.75;;;19.50;99.90;;;;;;5073709;28;20040;-72
2022/07/05 09:25:31;;;;;;;2.60;0.55;;;19.50;99.90;;;;;;5073729;28;20067;-72
2022/07/05 09:27:57;;;;;;;3.50;0.70;;;19.60;99.90;;;;;;5073915;28;20043;-72
2022/07/05 09:30:31;;;;;;;3.58;0.73;;;19.60;99.90;;;;;;5073568;28;20416;-72
2022/07/05 09:33:08;;;;;;;5.75;1.42;;;19.60;99.90;;;;;;5073754;28;20043;-72
2022/07/05 09:35:42;;;;;;;5.57;1.08;;;19.70;99.90;;;;;;5074837;28;20036;-72
2022/07/05 09:38:28;;;;;;;4.32;0.93;;;19.90;99.90;;;;;;5073431;28;20072;-72
2022/07/05 09:40:55;;;;;;;4.47;0.60;;;20.40;99.90;;;;;;5057311;28;20048;-72
2022/07/05 09:49:51;;;;;;;8.98;0.95;;;20.40;95.90;;;;;;5073336;28;20139;-71
2022/07/05 09:52:56;;;;;;;5.30;0.80;;;20.30;97.70;;;;;;5074923;28;20071;-71
2022/07/05 09:56:18;;;;;;;6.15;1.38;;;20.10;99.90;;;;;;5074338;28;20097;-71
2022/07/05 09:59:31;;;;;;;3.90;0.73;;;20.00;99.90;;;;;;5073413;28;20496;-72
2022/07/05 10:12:11;;;;;;;5.55;0.88;;;19.60;99.90;;;;;;5074470;28;20067;-71
2022/07/05 10:18:22;;;;;;;3.53;0.70;;;19.50;99.90;;;;;;5073886;28;20108;-71
2022/07/05 10:20:51;;;;;;;8.23;0.98;;;19.70;99.90;;;;;;5072535;28;20089;-71
2022/07/05 10:23:18;;;;;;;5.38;0.60;;;20.20;99.90;;;;;;5072717;28;20080;-71
2022/07/05 10:25:49;;;;;;;3.83;0.75;;;20.60;99.90;;;;;;5072400;28;20041;-71
2022/07/05 10:28:19;;;;;;;3.53;0.88;;;20.90;99.90;;;;;;5072408;28;20120;-72
2022/07/05 10:30:46;;;;;;;7.53;0.75;;;21.00;99.00;;;;;;5072320;28;20040;-72
2022/07/05 10:33:16;;;;;;;3.70;0.60;;;21.00;99.00;;;;;;5072298;28;20083;-72
2022/07/05 10:35:45;;;;;;;2.55;0.60;;;20.70;97.70;;;;;;5071945;28;20497;-72
2022/07/05 10:38:12;;;;;;;3.30;0.63;;;20.50;99.30;;;;;;5073597;28;20508;-71
2022/07/05 10:40:40;;;;;;;5.45;0.93;;;20.20;99.10;;;;;;5072206;28;20128;-71
2022/07/05 10:43:07;;;;;;;6.07;1.02;;;20.10;98.80;;;;;;5072619;28;20048;-71
2022/07/05 10:45:46;;;;;;;7.22;0.65;;;20.10;99.10;;;;;;5072161;28;20493;-71
2022/07/05 10:48:16;;;;;;;6.18;1.02;;;20.60;99.80;;;;;;5072124;28;20033;-71
2022/07/05 10:50:57;;;;;;;4.38;0.80;;;20.70;99.10;;;;;;5072040;28;20056;-71
2022/07/05 10:53:30;;;;;;;3.05;0.80;;;20.70;98.90;;;;;;5071986;28;20041;-73
2022/07/05 10:56:03;;;;;;;3.60;0.77;;;20.40;98.30;;;;;;5055571;28;20029;-71
2022/07/05 10:58:31;;;;;;;3.22;0.80;;;20.20;99.60;;;;;;5071955;28;20115;-71
2022/07/05 11:01:12;;;;;;;4.63;0.98;;;19.90;99.90;;;;;;5071958;28;20484;-71
2022/07/05 11:03:40;;;;;;;5.55;1.00;;;19.80;99.90;;;;;;5071862;28;20123;-72
2022/07/05 11:06:07;;;;;;;6.45;0.70;;;19.60;99.90;;;;;;5072327;28;20126;-72
2022/07/05 11:08:56;;;;;;;3.40;0.70;;;19.50;99.90;;;;;;5055002;28;20041;-72
2022/07/05 11:11:27;;;;;;;4.57;0.98;;;19.50;99.90;;;;;;5066401;28;20045;-72
2022/07/05 11:13:58;;;;;;;5.43;0.80;;;19.50;99.90;;;;;;5072119;28;20103;-72
2022/07/05 11:16:26;;;;;;;3.58;0.73;;;19.70;99.90;;;;;;5071934;28;20045;-72
2022/07/05 11:19:16;;;;;;;3.40;0.93;;;19.90;99.90;;;;;;5072204;28;20040;-70
2022/07/05 11:22:05;;;;;;;3.63;0.80;;;20.10;99.90;;;;;;5071987;28;20036;-71
2022/07/05 11:24:32;;;;;;;4.05;0.80;;;20.60;99.90;;;;;;5071718;28;20090;-71
2022/07/05 11:26:59;;;;;;;4.20;0.68;;;21.10;98.80;;;;;;5071874;28;20049;-71
2022/07/05 11:29:43;;;;;;;5.72;1.13;;;21.30;94.90;;;;;;5071888;28;20127;-71
2022/07/05 11:32:14;;;;;;;3.30;0.75;;;21.70;93.10;;;;;;5071593;28;20158;-71
2022/07/05 11:34:41;;;;;;;5.93;0.80;;;21.90;92.50;;;;;;5071817;28;20077;-71
2022/07/05 11:37:16;;;;;;;5.80;0.70;;;22.30;91.10;;;;;;5071493;28;20409;-71
2022/07/05 11:39:42;;;;;;;5.13;1.15;;;22.30;86.00;;;;;;5054918;28;20044;-71
2022/07/05 11:42:20;;;;;;;6.20;0.68;;;22.00;82.40;;;;;;5071730;28;20040;-71
2022/07/05 11:44:49;;;;;;;3.47;0.90;;;21.70;80.70;;;;;;5055256;28;20036;-71
2022/07/05 11:47:17;;;;;;;3.67;0.50;;;21.60;88.30;;;;;;5073325;28;20043;-71
2022/07/05 11:49:53;;;;;;;4.03;0.68;;;21.50;89.20;;;;;;5058780;28;20040;-71
2022/07/05 11:52:28;;;;;;;4.47;0.73;;;21.40;84.50;;;;;;5075671;28;20106;-71
2022/07/05 11:54:53;;;;;;;8.43;0.75;;;21.40;89.00;;;;;;5075563;28;20036;-71
2022/07/05 11:57:20;;;;;;;1.33;0.50;;;21.40;89.10;;;;;;5075212;28;20096;-71
2022/07/05 11:59:46;;;;;;;3.03;0.60;;;21.60;88.90;;;;;;5075158;28;20055;-72
2022/07/05 12:02:13;;;;;;;3.55;0.70;;;21.70;84.90;;;;;;5075062;28;20036;-72
2022/07/05 12:04:38;;;;;;;2.65;0.38;;;22.00;75.80;;;;;;5058745;28;20524;-73
2022/07/05 12:07:04;;;;;;;6.20;0.60;;;22.40;73.00;;;;;;5075083;28;20123;-71
2022/07/05 12:12:42;;;;;;;4.03;0.50;;;22.70;73.00;;;;;;5075206;28;20040;-71
2022/07/05 12:12:42;;;;;;;2.20;0.50;;;22.90;74.50;;;;;;5074992;28;20523;-70
2022/07/05 12:15:28;;;;;;;2.75;0.70;;;23.20;69.80;;;;;;5074985;28;20509;-70
2022/07/05 12:17:54;;;;;;;3.42;0.50;;;23.00;64.70;;;;;;5075195;28;20056;-70
2022/07/05 12:20:22;;;;;;;2.10;0.38;;;22.60;65.50;;;;;;5074878;28;20158;-70
2022/07/05 12:22:49;;;;;;;3.05;0.52;;;22.40;67.50;;;;;;5074673;28;20101;-70
2022/07/05 12:25:17;;;;;;;5.30;0.45;;;22.50;66.70;;;;;;5074736;28;20111;-70
2022/07/05 12:27:44;;;;;;;2.25;0.35;;;22.80;66.90;;;;;;5058133;28;20036;-70
2022/07/05 12:30:11;;;;;;;4.40;0.50;;;23.00;64.30;;;;;;5057903;28;20047;-70
2022/07/05 12:33:01;;;;;;;4.05;0.60;;;23.10;63.30;;;;;;5057798;28;20048;-71
2022/07/05 12:35:44;;;;;;;2.38;0.60;;;23.30;60.50;;;;;;5069328;28;20052;-71
2022/07/05 12:38:12;;;;;;;4.30;0.68;;;23.30;66.10;;;;;;5074626;28;20033;-71
2022/07/05 12:40:38;;;;;;;3.72;0.80;;;23.10;69.20;;;;;;5074466;28;20090;-71
2022/07/05 12:43:09;;;;;;;6.10;1.00;;;23.10;69.90;;;;;;5074380;28;20047;-71
2022/07/05 12:45:36;;;;;;;6.07;0.80;;;23.20;71.60;;;;;;5074449;28;20041;-71
2022/07/05 12:48:07;;;;;;;4.22;0.77;;;23.30;70.30;;;;;;5074465;28;20552;-71
2022/07/05 12:50:50;;;;;;;3.95;0.80;;;23.70;72.70;;;;;;5074391;28;20040;-71
2022/07/05 12:58:55;;;;;;;5.18;0.60;;;24.30;67.90;;;;;;5073905;28;20084;-72
2022/07/05 13:01:29;;;;;;;3.20;0.70;;;24.40;66.60;;;;;;5074351;28;20405;-72
2022/07/05 13:04:02;;;;;;;4.45;0.63;;;24.60;64.50;;;;;;5074056;28;20501;-72
2022/07/05 13:06:50;;;;;;;3.28;0.65;;;24.80;65.40;;;;;;5074066;28;20048;-72
2022/07/05 13:09:32;;;;;;;3.90;0.80;;;25.00;64.10;;;;;;5074132;28;20041;-72
2022/07/05 13:12:11;;;;;;;3.95;0.70;;;25.10;64.00;;;;;;5073865;28;20489;-72
2022/07/05 13:14:42;;;;;;;3.00;0.60;;;25.30;61.90;;;;;;5073887;28;20036;-72
2022/07/05 13:17:09;;;;;;;2.58;0.40;;;25.40;61.60;;;;;;5073850;28;20032;-72
2022/07/05 13:19:36;;;;;;;4.60;0.63;;;25.30;58.90;;;;;;5057076;28;20036;-72
2022/07/05 13:22:03;;;;;;;2.22;0.50;;;25.20;58.80;;;;;;5057294;28;20137;-72
2022/07/05 13:24:29;;;;;;;2.63;0.70;;;25.10;58.40;;;;;;5073714;28;20028;-72